sensor_id;sensor_type;location;lat;lon;timestamp;pressure;altitude;pressure_sealevel;temperature;humidity
4449;BME280;2237;51.870;6.160;2023-02-19T00:01:42;101626.03;;;11.06;100.00
4449;BME280;2237;51.870;6.160;2023-02-19T00:04:18;101614.75;;;11.05;100.00
4449;BME280;2237;51.870;6.160;2023-02-19T00:06:45;101622.53;;;11.07;100.00
4449;BME280;2237;51.870;6.160;2023-02-19T00:09:17;101622.63;;;11.01;100.00
4449;BME280;2237;51.870;6.160;2023-02-19T00:11:44;101620.06;;;10.96;100.00
4449;BME280;2237;51.870;6.160;2023-02-19T00:14:14;101630.56;;;10.89;100.00
4449;BME280;2237;51.870;6.160;2023-02-19T00:16:41;101621.78;;;10.97;100.00
4449;BME280;2237;51.870;6.160;2023-02-19T00:19:11;101623.56;;;10.95;100.00
4449;BME280;2237;51.870;6.160;2023-02-19T00:21:38;101611.34;;;10.97;100.00
4449;BME280;2237;51.870;6.160;2023-02-19T00:24:06;101631.44;;;10.91;100.00
4449;BME280;2237;51.870;6.160;2023-02-19T00:26:33;101622.63;;;11.02;100.00
4449;BME280;2237;51.870;6.160;2023-02-19T00:29:00;101622.63;;;11.01;100.00
4449;BME280;2237;51.870;6.160;2023-02-19T00:31:32;101626.25;;;10.88;100.00
4449;BME280;2237;51.870;6.160;2023-02-19T00:34:01;101614.06;;;10.90;100.00
4449;BME280;2237;51.870;6.160;2023-02-19T00:36:30;101623.56;;;10.95;100.00
4449;BME280;2237;51.870;6.160;2023-02-19T00:38:56;101620.94;;;10.97;100.00
4449;BME280;2237;51.870;6.160;2023-02-19T00:41:25;101628.81;;;10.91;100.00
4449;BME280;2237;51.870;6.160;2023-02-19T00:43:59;101623.56;;;10.97;100.00
4449;BME280;2237;51.870;6.160;2023-02-19T00:46:34;101632.38;;;10.84;100.00
4449;BME280;2237;51.870;6.160;2023-02-19T00:49:02;101621.03;;;10.88;100.00
4449;BME280;2237;51.870;6.160;2023-02-19T00:51:31;101616.75;;;10.81;100.00
4449;BME280;2237;51.870;6.160;2023-02-19T00:53:59;101615.88;;;10.82;100.00
4449;BME280;2237;51.870;6.160;2023-02-19T00:56:25;101621.91;;;10.87;100.00
4449;BME280;2237;51.870;6.160;2023-02-19T00:58:52;101620.25;;;10.78;100.00
4449;BME280;2237;51.870;6.160;2023-02-19T01:01:19;101615.00;;;10.83;100.00
4449;BME280;2237;51.870;6.160;2023-02-19T01:03:46;101624.50;;;10.88;100.00
4449;BME280;2237;51.870;6.160;2023-02-19T01:06:15;101622.81;;;10.83;100.00
4449;BME280;2237;51.870;6.160;2023-02-19T01:08:42;101623.56;;;10.95;100.00
4449;BME280;2237;51.870;6.160;2023-02-19T01:11:09;101641.13;;;10.76;100.00
4449;BME280;2237;51.870;6.160;2023-02-19T01:13:37;101633.41;;;10.67;100.00
4449;BME280;2237;51.870;6.160;2023-02-19T01:16:05;101631.72;;;10.60;100.00
4449;BME280;2237;51.870;6.160;2023-02-19T01:18:32;101628.22;;;10.64;100.00
4449;BME280;2237;51.870;6.160;2023-02-19T01:20:58;101636.97;;;10.57;100.00
4449;BME280;2237;51.870;6.160;2023-02-19T01:23:25;101637.91;;;10.49;100.00
4449;BME280;2237;51.870;6.160;2023-02-19T01:25:51;101637.88;;;10.53;100.00
4449;BME280;2237;51.870;6.160;2023-02-19T01:28:18;101638.78;;;10.49;100.00
4449;BME280;2237;51.870;6.160;2023-02-19T01:30:44;101641.38;;;10.49;100.00
4449;BME280;2237;51.870;6.160;2023-02-19T01:33:10;101647.56;;;10.36;100.00
4449;BME280;2237;51.870;6.160;2023-02-19T01:35:38;101649.22;;;10.46;100.00
4449;BME280;2237;51.870;6.160;2023-02-19T01:38:04;101652.66;;;10.48;100.00
4449;BME280;2237;51.870;6.160;2023-02-19T01:40:33;101652.63;;;10.54;100.00
4449;BME280;2237;51.870;6.160;2023-02-19T01:43:00;101657.00;;;10.48;100.00
4449;BME280;2237;51.870;6.160;2023-02-19T01:45:34;101656.16;;;10.49;100.00
4449;BME280;2237;51.870;6.160;2023-02-19T01:50:47;101661.44;;;10.41;100.00
4449;BME280;2237;51.870;6.160;2023-02-19T01:53:18;101660.56;;;10.41;100.00
4449;BME280;2237;51.870;6.160;2023-02-19T01:55:47;101656.13;;;10.52;100.00
4449;BME280;2237;51.870;6.160;2023-02-19T01:58:16;101646.66;;;10.43;100.00
4449;BME280;2237;51.870;6.160;2023-02-19T02:00:42;101647.50;;;10.47;100.00
4449;BME280;2237;51.870;6.160;2023-02-19T02:03:09;101650.16;;;10.41;100.00
4449;BME280;2237;51.870;6.160;2023-02-19T02:08:04;101638.72;;;10.58;100.00
4449;BME280;2237;51.870;6.160;2023-02-19T02:10:50;101651.81;;;10.49;100.00
4449;BME280;2237;51.870;6.160;2023-02-19T02:13:18;101647.53;;;10.41;100.00
4449;BME280;2237;51.870;6.160;2023-02-19T02:16:13;101652.66;;;10.51;100.00
4449;BME280;2237;51.870;6.160;2023-02-19T02:27:42;101659.81;;;10.27;100.00
4449;BME280;2237;51.870;6.160;2023-02-19T02:30:32;101660.56;;;10.41;100.00
4449;BME280;2237;51.870;6.160;2023-02-19T02:33:26;101664.06;;;10.37;100.00
4449;BME280;2237;51.870;6.160;2023-02-19T02:38:36;101651.03;;;10.38;100.00
4449;BME280;2237;51.870;6.160;2023-02-19T02:41:05;101663.06;;;10.51;100.00
4449;BME280;2237;51.870;6.160;2023-02-19T02:43:31;101655.19;;;10.57;100.00
4449;BME280;2237;51.870;6.160;2023-02-19T02:45:58;101660.56;;;10.39;100.00
4449;BME280;2237;51.870;6.160;2023-02-19T02:50:59;101659.75;;;10.36;100.00
4449;BME280;2237;51.870;6.160;2023-02-19T02:56:33;101665.94;;;10.21;100.00
4449;BME280;2237;51.870;6.160;2023-02-19T02:59:01;101655.53;;;10.21;100.00
4449;BME280;2237;51.870;6.160;2023-02-19T03:01:33;101671.06;;;10.33;100.00
4449;BME280;2237;51.870;6.160;2023-02-19T03:04:27;101678.88;;;10.33;100.00
4449;BME280;2237;51.870;6.160;2023-02-19T03:06:55;101680.53;;;10.40;100.00
4449;BME280;2237;51.870;6.160;2023-02-19T03:09:34;101681.44;;;10.35;100.00
4449;BME280;2237;51.870;6.160;2023-02-19T03:12:10;101677.94;;;10.39;100.00
4449;BME280;2237;51.870;6.160;2023-02-19T03:14:57;101683.97;;;10.42;100.00
4449;BME280;2237;51.870;6.160;2023-02-19T03:17:48;101679.63;;;10.43;100.00
4449;BME280;2237;51.870;6.160;2023-02-19T03:20:38;101682.34;;;10.29;100.00
4449;BME280;2237;51.870;6.160;2023-02-19T03:23:07;101684.97;;;10.26;100.00
4449;BME280;2237;51.870;6.160;2023-02-19T03:25:34;101690.97;;;10.34;100.00
4449;BME280;2237;51.870;6.160;2023-02-19T03:28:22;101696.22;;;10.33;100.00
4449;BME280;2237;51.870;6.160;2023-02-19T03:31:13;101688.41;;;10.33;100.00
4449;BME280;2237;51.870;6.160;2023-02-19T03:33:42;101697.91;;;10.38;100.00
4449;BME280;2237;51.870;6.160;2023-02-19T03:36:12;101703.13;;;10.35;100.00
4449;BME280;2237;51.870;6.160;2023-02-19T03:38:47;101702.25;;;10.38;100.00
4449;BME280;2237;51.870;6.160;2023-02-19T03:41:25;101701.41;;;10.31;100.00
4449;BME280;2237;51.870;6.160;2023-02-19T03:47:11;101707.47;;;10.35;100.00
4449;BME280;2237;51.870;6.160;2023-02-19T03:49:41;101707.47;;;10.35;100.00
4449;BME280;2237;51.870;6.160;2023-02-19T03:52:14;101710.97;;;10.31;100.00
4449;BME280;2237;51.870;6.160;2023-02-19T03:57:20;101716.19;;;10.29;100.00
4449;BME280;2237;51.870;6.160;2023-02-19T03:59:50;101722.25;;;10.28;100.00
4449;BME280;2237;51.870;6.160;2023-02-19T04:02:40;101723.16;;;10.26;100.00
4449;BME280;2237;51.870;6.160;2023-02-19T04:05:26;101727.53;;;10.10;100.00
4449;BME280;2237;51.870;6.160;2023-02-19T04:07:58;101736.25;;;10.15;100.00
4449;BME280;2237;51.870;6.160;2023-02-19T04:10:26;101730.97;;;10.23;100.00
4449;BME280;2237;51.870;6.160;2023-02-19T04:13:03;101740.59;;;10.14;100.00
4449;BME280;2237;51.870;6.160;2023-02-19T04:15:33;101735.28;;;10.33;100.00
4449;BME280;2237;51.870;6.160;2023-02-19T04:18:03;101755.25;;;10.28;100.00
4449;BME280;2237;51.870;6.160;2023-02-19T04:20:37;101742.28;;;10.20;100.00
4449;BME280;2237;51.870;6.160;2023-02-19T04:23:05;101750.00;;;10.31;100.00
4449;BME280;2237;51.870;6.160;2023-02-19T04:25:32;101757.84;;;10.28;100.00
4449;BME280;2237;51.870;6.160;2023-02-19T04:28:00;101745.72;;;10.27;100.00
4449;BME280;2237;51.870;6.160;2023-02-19T04:30:26;101754.47;;;10.13;100.00
4449;BME280;2237;51.870;6.160;2023-02-19T04:32:53;101769.25;;;10.07;100.00
4449;BME280;2237;51.870;6.160;2023-02-19T04:35:19;101763.13;;;10.17;100.00
4449;BME280;2237;51.870;6.160;2023-02-19T04:37:45;101766.59;;;10.11;100.00
4449;BME280;2237;51.870;6.160;2023-02-19T04:40:12;101757.88;;;10.23;100.00
4449;BME280;2237;51.870;6.160;2023-02-19T04:42:38;101766.56;;;10.24;100.00
4449;BME280;2237;51.870;6.160;2023-02-19T04:45:05;101770.91;;;10.23;100.00
4449;BME280;2237;51.870;6.160;2023-02-19T04:47:31;101768.28;;;10.26;100.00
4449;BME280;2237;51.870;6.160;2023-02-19T04:49:58;101782.13;;;10.31;100.00
4449;BME280;2237;51.870;6.160;2023-02-19T04:52:24;101782.13;;;10.36;100.00
4449;BME280;2237;51.870;6.160;2023-02-19T04:54:51;101777.69;;;10.50;100.00
4449;BME280;2237;51.870;6.160;2023-02-19T04:57:17;101787.28;;;10.42;100.00
4449;BME280;2237;51.870;6.160;2023-02-19T04:59:45;101789.97;;;10.27;100.00
4449;BME280;2237;51.870;6.160;2023-02-19T05:02:11;101796.91;;;10.29;100.00
4449;BME280;2237;51.870;6.160;2023-02-19T05:04:38;101797.72;;;10.42;100.00
4449;BME280;2237;51.870;6.160;2023-02-19T05:07:04;101803.75;;;10.44;100.00
4449;BME280;2237;51.870;6.160;2023-02-19T05:09:30;101802.03;;;10.41;100.00
4449;BME280;2237;51.870;6.160;2023-02-19T05:11:57;101808.16;;;10.36;100.00
4449;BME280;2237;51.870;6.160;2023-02-19T05:14:23;101808.13;;;10.37;100.00
4449;BME280;2237;51.870;6.160;2023-02-19T05:16:49;101810.69;;;10.43;100.00
4449;BME280;2237;51.870;6.160;2023-02-19T05:19:16;101814.25;;;10.30;100.00
4449;BME280;2237;51.870;6.160;2023-02-19T05:21:42;101817.69;;;10.35;100.00
4449;BME280;2237;51.870;6.160;2023-02-19T05:24:09;101813.38;;;10.36;100.00
4449;BME280;2237;51.870;6.160;2023-02-19T05:26:35;101824.69;;;10.30;100.00
4449;BME280;2237;51.870;6.160;2023-02-19T05:29:02;101829.94;;;10.21;100.00
4449;BME280;2237;51.870;6.160;2023-02-19T05:31:29;101823.81;;;10.22;100.00
4449;BME280;2237;51.870;6.160;2023-02-19T05:33:55;101823.78;;;10.36;100.00
4449;BME280;2237;51.870;6.160;2023-02-19T05:36:22;101833.34;;;10.32;100.00
4449;BME280;2237;51.870;6.160;2023-02-19T05:38:53;101820.28;;;10.34;100.00
4449;BME280;2237;51.870;6.160;2023-02-19T05:41:23;101828.94;;;10.40;100.00
4449;BME280;2237;51.870;6.160;2023-02-19T05:43:50;101829.81;;;10.36;100.00
4449;BME280;2237;51.870;6.160;2023-02-19T05:46:18;101829.81;;;10.41;100.00
4449;BME280;2237;51.870;6.160;2023-02-19T05:48:47;101833.22;;;10.53;100.00
4449;BME280;2237;51.870;6.160;2023-02-19T05:51:16;101836.78;;;10.39;100.00
4449;BME280;2237;51.870;6.160;2023-02-19T05:53:43;101841.13;;;10.38;100.00
4449;BME280;2237;51.870;6.160;2023-02-19T05:56:20;101829.81;;;10.36;100.00
4449;BME280;2237;51.870;6.160;2023-02-19T05:58:48;101831.56;;;10.37;100.00
4449;BME280;2237;51.870;6.160;2023-02-19T06:01:16;101834.22;;;10.28;100.00
4449;BME280;2237;51.870;6.160;2023-02-19T06:03:42;101837.69;;;10.30;100.00
4449;BME280;2237;51.870;6.160;2023-02-19T06:06:12;101834.16;;;10.42;100.00
4449;BME280;2237;51.870;6.160;2023-02-19T06:08:38;101848.91;;;10.44;100.00
4449;BME280;2237;51.870;6.160;2023-02-19T06:11:05;101848.88;;;10.47;100.00
4449;BME280;2237;51.870;6.160;2023-02-19T06:13:31;101852.34;;;10.46;100.00
4449;BME280;2237;51.870;6.160;2023-02-19T06:15:58;101859.31;;;10.43;100.00
4449;BME280;2237;51.870;6.160;2023-02-19T06:18:24;101869.72;;;10.43;100.00
4449;BME280;2237;51.870;6.160;2023-02-19T06:20:50;101863.63;;;10.47;100.00
4449;BME280;2237;51.870;6.160;2023-02-19T06:23:17;101869.72;;;10.47;100.00
4449;BME280;2237;51.870;6.160;2023-02-19T06:25:43;101862.78;;;10.40;100.00
4449;BME280;2237;51.870;6.160;2023-02-19T06:28:10;101862.78;;;10.43;100.00
4449;BME280;2237;51.870;6.160;2023-02-19T06:30:36;101879.34;;;10.33;100.00
4449;BME280;2237;51.870;6.160;2023-02-19T06:33:02;101889.72;;;10.41;100.00
4449;BME280;2237;51.870;6.160;2023-02-19T06:35:29;101883.56;;;10.52;100.00
4449;BME280;2237;51.870;6.160;2023-02-19T06:37:55;101905.28;;;10.48;100.00
4449;BME280;2237;51.870;6.160;2023-02-19T06:40:21;101889.59;;;10.63;100.00
4449;BME280;2237;51.870;6.160;2023-02-19T06:42:48;101902.69;;;10.48;100.00
4449;BME280;2237;51.870;6.160;2023-02-19T06:45:14;101894.91;;;10.41;100.00
4449;BME280;2237;51.870;6.160;2023-02-19T06:47:40;101901.03;;;10.32;100.00
4449;BME280;2237;51.870;6.160;2023-02-19T06:50:07;101903.66;;;10.23;100.00
4449;BME280;2237;51.870;6.160;2023-02-19T06:52:33;101914.91;;;10.31;100.00
4449;BME280;2237;51.870;6.160;2023-02-19T06:54:59;101915.78;;;10.29;100.00
4449;BME280;2237;51.870;6.160;2023-02-19T06:57:26;101915.75;;;10.36;100.00
4449;BME280;2237;51.870;6.160;2023-02-19T06:59:52;101915.75;;;10.44;100.00
4449;BME280;2237;51.870;6.160;2023-02-19T07:02:18;101917.50;;;10.42;100.00
4449;BME280;2237;51.870;6.160;2023-02-19T07:04:45;101914.91;;;10.34;100.00
4449;BME280;2237;51.870;6.160;2023-02-19T07:07:11;101922.66;;;10.52;100.00
4449;BME280;2237;51.870;6.160;2023-02-19T07:09:37;101917.41;;;10.51;100.00
4449;BME280;2237;51.870;6.160;2023-02-19T07:12:04;101931.28;;;10.65;100.00
4449;BME280;2237;51.870;6.160;2023-02-19T07:14:31;101919.19;;;10.49;100.00
4449;BME280;2237;51.870;6.160;2023-02-19T07:16:57;101938.28;;;10.46;100.00
4449;BME280;2237;51.870;6.160;2023-02-19T07:19:23;101927.84;;;10.51;100.00
4449;BME280;2237;51.870;6.160;2023-02-19T07:21:50;101944.38;;;10.45;100.00
4449;BME280;2237;51.870;6.160;2023-02-19T07:24:16;101951.31;;;10.46;100.00
4449;BME280;2237;51.870;6.160;2023-02-19T07:26:43;101956.53;;;10.46;100.00
4449;BME280;2237;51.870;6.160;2023-02-19T07:29:09;101959.09;;;10.58;100.00
4449;BME280;2237;51.870;6.160;2023-02-19T07:31:35;101962.56;;;10.54;100.00
4449;BME280;2237;51.870;6.160;2023-02-19T07:34:02;101969.47;;;10.70;100.00
4449;BME280;2237;51.870;6.160;2023-02-19T07:36:28;101968.59;;;10.70;100.00
4449;BME280;2237;51.870;6.160;2023-02-19T07:38:56;101975.53;;;10.66;100.00
4449;BME280;2237;51.870;6.160;2023-02-19T07:41:23;101969.47;;;10.60;100.00
4449;BME280;2237;51.870;6.160;2023-02-19T07:43:50;101982.50;;;10.57;100.00
4449;BME280;2237;51.870;6.160;2023-02-19T07:46:16;101992.97;;;10.55;100.00
4449;BME280;2237;51.870;6.160;2023-02-19T07:48:43;101998.16;;;10.58;100.00
4449;BME280;2237;51.870;6.160;2023-02-19T07:51:12;102004.28;;;10.41;100.00
4449;BME280;2237;51.870;6.160;2023-02-19T07:53:40;102009.50;;;10.36;100.00
4449;BME280;2237;51.870;6.160;2023-02-19T07:56:07;102012.97;;;10.38;100.00
4449;BME280;2237;51.870;6.160;2023-02-19T07:58:35;102008.59;;;10.55;100.00
4449;BME280;2237;51.870;6.160;2023-02-19T08:01:09;102008.56;;;10.64;100.00
4449;BME280;2237;51.870;6.160;2023-02-19T08:03:37;102005.06;;;10.59;100.00
4449;BME280;2237;51.870;6.160;2023-02-19T08:06:05;102017.22;;;10.66;100.00
4449;BME280;2237;51.870;6.160;2023-02-19T08:08:32;102011.16;;;10.64;100.00
4449;BME280;2237;51.870;6.160;2023-02-19T08:11:02;102013.81;;;10.49;100.00
4449;BME280;2237;51.870;6.160;2023-02-19T08:13:48;102024.25;;;10.40;100.00
4449;BME280;2237;51.870;6.160;2023-02-19T08:16:15;102019.03;;;10.40;100.00
4449;BME280;2237;51.870;6.160;2023-02-19T08:18:58;102027.72;;;10.50;100.00
4449;BME280;2237;51.870;6.160;2023-02-19T08:21:25;102023.31;;;10.61;100.00
4449;BME280;2237;51.870;6.160;2023-02-19T08:23:51;102033.72;;;10.70;100.00
4449;BME280;2237;51.870;6.160;2023-02-19T08:26:17;102029.38;;;10.73;100.00
4449;BME280;2237;51.870;6.160;2023-02-19T08:28:44;102041.44;;;10.90;100.00
4449;BME280;2237;51.870;6.160;2023-02-19T08:31:11;102033.66;;;10.88;100.00
4449;BME280;2237;51.870;6.160;2023-02-19T08:33:38;102039.72;;;10.89;100.00
4449;BME280;2237;51.870;6.160;2023-02-19T08:36:07;102039.72;;;10.83;100.00
4449;BME280;2237;51.870;6.160;2023-02-19T08:38:35;102046.66;;;10.90;100.00
4449;BME280;2237;51.870;6.160;2023-02-19T08:41:06;102046.69;;;10.88;100.00
4449;BME280;2237;51.870;6.160;2023-02-19T08:43:34;102044.91;;;10.92;100.00
4449;BME280;2237;51.870;6.160;2023-02-19T08:46:02;102052.69;;;11.04;100.00
4449;BME280;2237;51.870;6.160;2023-02-19T08:48:28;102066.56;;;11.07;100.00
4449;BME280;2237;51.870;6.160;2023-02-19T08:50:56;102070.09;;;10.96;100.00
4449;BME280;2237;51.870;6.160;2023-02-19T08:53:24;102066.59;;;11.04;100.00
4449;BME280;2237;51.870;6.160;2023-02-19T08:55:50;102063.88;;;11.24;100.00
4449;BME280;2237;51.870;6.160;2023-02-19T08:58:17;102084.69;;;11.34;100.00
4449;BME280;2237;51.870;6.160;2023-02-19T09:00:43;102088.13;;;11.41;100.00
4449;BME280;2237;51.870;6.160;2023-02-19T09:03:10;102095.88;;;11.56;100.00
4449;BME280;2237;51.870;6.160;2023-02-19T09:05:37;102088.97;;;11.48;100.00
4449;BME280;2237;51.870;6.160;2023-02-19T09:08:03;102085.47;;;11.47;100.00
4449;BME280;2237;51.870;6.160;2023-02-19T09:10:30;102081.88;;;11.65;100.00
4449;BME280;2237;51.870;6.160;2023-02-19T09:12:56;102081.13;;;11.51;100.00
4449;BME280;2237;51.870;6.160;2023-02-19T09:15:22;102065.34;;;11.67;100.00
4449;BME280;2237;51.870;6.160;2023-02-19T09:17:52;102078.53;;;11.46;100.00
4449;BME280;2237;51.870;6.160;2023-02-19T09:20:18;102082.94;;;11.37;100.00
4449;BME280;2237;51.870;6.160;2023-02-19T09:22:45;102079.44;;;11.42;100.00
4449;BME280;2237;51.870;6.160;2023-02-19T09:25:11;102089.06;;;11.31;100.00
4449;BME280;2237;51.870;6.160;2023-02-19T09:27:37;102088.00;;;11.59;100.00
4449;BME280;2237;51.870;6.160;2023-02-19T09:30:04;102093.13;;;11.83;100.00
4449;BME280;2237;51.870;6.160;2023-02-19T09:32:31;102101.88;;;11.70;100.00
4449;BME280;2237;51.870;6.160;2023-02-19T09:34:58;102102.88;;;11.41;100.00
4449;BME280;2237;51.870;6.160;2023-02-19T09:37:25;102111.56;;;11.44;100.00
4449;BME280;2237;51.870;6.160;2023-02-19T09:39:53;102119.28;;;11.65;100.00
4449;BME280;2237;51.870;6.160;2023-02-19T09:42:26;102114.06;;;11.70;100.00
4449;BME280;2237;51.870;6.160;2023-02-19T09:44:57;102121.88;;;11.77;100.00
4449;BME280;2237;51.870;6.160;2023-02-19T09:47:26;102113.22;;;11.62;100.00
4449;BME280;2237;51.870;6.160;2023-02-19T09:49:56;102132.34;;;11.64;100.00
4449;BME280;2237;51.870;6.160;2023-02-19T09:52:26;102157.59;;;11.69;100.00
4449;BME280;2237;51.870;6.160;2023-02-19T09:54:59;102174.97;;;11.58;100.00
4449;BME280;2237;51.870;6.160;2023-02-19T09:57:27;102166.34;;;11.44;100.00
4449;BME280;2237;51.870;6.160;2023-02-19T10:03:20;102178.63;;;11.22;100.00
4449;BME280;2237;51.870;6.160;2023-02-19T10:05:48;102187.19;;;11.56;100.00
4449;BME280;2237;51.870;6.160;2023-02-19T10:08:18;102172.31;;;11.76;100.00
4449;BME280;2237;51.870;6.160;2023-02-19T10:10:44;102187.75;;;12.16;100.00
4449;BME280;2237;51.870;6.160;2023-02-19T10:13:20;102191.09;;;12.28;100.00
4449;BME280;2237;51.870;6.160;2023-02-19T10:15:52;102195.41;;;12.37;100.00
4449;BME280;2237;51.870;6.160;2023-02-19T10:18:22;102202.31;;;12.44;100.00
4449;BME280;2237;51.870;6.160;2023-02-19T10:20:51;102195.06;;;12.75;100.00
4449;BME280;2237;51.870;6.160;2023-02-19T10:23:18;102189.81;;;12.79;100.00
4449;BME280;2237;51.870;6.160;2023-02-19T10:25:52;102193.34;;;12.72;100.00
4449;BME280;2237;51.870;6.160;2023-02-19T10:28:22;102197.75;;;12.66;100.00
4449;BME280;2237;51.870;6.160;2023-02-19T10:30:54;102199.84;;;12.26;100.00
4449;BME280;2237;51.870;6.160;2023-02-19T10:33:22;102210.16;;;12.44;100.00
4449;BME280;2237;51.870;6.160;2023-02-19T10:38:32;102218.88;;;12.40;100.00
4449;BME280;2237;51.870;6.160;2023-02-19T10:43:34;102226.63;;;12.52;100.00
4449;BME280;2237;51.870;6.160;2023-02-19T10:46:05;102232.84;;;12.42;100.00
4449;BME280;2237;51.870;6.160;2023-02-19T10:48:41;102230.06;;;12.57;100.00
4449;BME280;2237;51.870;6.160;2023-02-19T10:51:11;102224.84;;;12.57;100.00
4449;BME280;2237;51.870;6.160;2023-02-19T10:53:45;102237.00;;;12.64;100.00
4449;BME280;2237;51.870;6.160;2023-02-19T10:56:24;102231.06;;;12.44;100.00
4449;BME280;2237;51.870;6.160;2023-02-19T10:58:51;102243.34;;;12.31;100.00
4449;BME280;2237;51.870;6.160;2023-02-19T11:01:22;102232.94;;;12.22;100.00
4449;BME280;2237;51.870;6.160;2023-02-19T11:03:52;102241.75;;;12.06;100.00
4449;BME280;2237;51.870;6.160;2023-02-19T11:06:38;102252.22;;;12.06;100.00
4449;BME280;2237;51.870;6.160;2023-02-19T11:09:05;102247.72;;;12.25;100.00
4449;BME280;2237;51.870;6.160;2023-02-19T11:11:41;102249.44;;;12.32;100.00
4449;BME280;2237;51.870;6.160;2023-02-19T11:14:16;102236.47;;;12.14;100.00
4449;BME280;2237;51.870;6.160;2023-02-19T11:16:49;102233.78;;;12.26;100.00
4449;BME280;2237;51.870;6.160;2023-02-19T11:21:51;102232.81;;;12.43;100.00
4449;BME280;2237;51.870;6.160;2023-02-19T11:24:25;102219.44;;;12.78;100.00
4449;BME280;2237;51.870;6.160;2023-02-19T11:26:54;102214.44;;;12.51;100.00
4449;BME280;2237;51.870;6.160;2023-02-19T11:29:22;102225.78;;;12.50;100.00
4449;BME280;2237;51.870;6.160;2023-02-19T11:31:49;102218.47;;;12.90;100.00
4449;BME280;2237;51.870;6.160;2023-02-19T11:37:06;102219.25;;;12.99;100.00
4449;BME280;2237;51.870;6.160;2023-02-19T11:39:32;102216.59;;;13.01;100.00
4449;BME280;2237;51.870;6.160;2023-02-19T11:45:21;102228.19;;;12.74;100.00
4449;BME280;2237;51.870;6.160;2023-02-19T11:51:32;102229.06;;;12.72;100.00
4449;BME280;2237;51.870;6.160;2023-02-19T11:53:45;102225.75;;;12.55;100.00
4449;BME280;2237;51.870;6.160;2023-02-19T11:59:22;102250.31;;;12.31;100.00
4449;BME280;2237;51.870;6.160;2023-02-19T12:02:17;102248.63;;;12.19;100.00
4449;BME280;2237;51.870;6.160;2023-02-19T12:08:01;102251.31;;;12.09;100.00
4449;BME280;2237;51.870;6.160;2023-02-19T12:10:56;102257.41;;;12.12;100.00
4449;BME280;2237;51.870;6.160;2023-02-19T12:16:29;102263.53;;;12.07;100.00
4449;BME280;2237;51.870;6.160;2023-02-19T12:21:54;102257.56;;;11.79;100.00
4449;BME280;2237;51.870;6.160;2023-02-19T12:27:19;102261.84;;;11.90;100.00
4449;BME280;2237;51.870;6.160;2023-02-19T12:32:57;102264.47;;;11.92;100.00
4449;BME280;2237;51.870;6.160;2023-02-19T12:35:45;102250.50;;;12.04;100.00
4449;BME280;2237;51.870;6.160;2023-02-19T12:38:21;102251.34;;;12.06;100.00
4449;BME280;2237;51.870;6.160;2023-02-19T12:43:21;102258.34;;;11.98;100.00
4449;BME280;2237;51.870;6.160;2023-02-19T12:45:54;102253.25;;;11.55;100.00
4449;BME280;2237;51.870;6.160;2023-02-19T12:51:24;102262.75;;;11.93;100.00
4449;BME280;2237;51.870;6.160;2023-02-19T12:54:12;102265.22;;;12.11;100.00
4449;BME280;2237;51.870;6.160;2023-02-19T12:56:49;102265.16;;;12.26;100.00
4449;BME280;2237;51.870;6.160;2023-02-19T12:59:25;102278.06;;;12.45;100.00
4449;BME280;2237;51.870;6.160;2023-02-19T13:02:20;102279.72;;;12.59;100.00
4449;BME280;2237;51.870;6.160;2023-02-19T13:05:23;102269.97;;;12.77;100.00
4449;BME280;2237;51.870;6.160;2023-02-19T13:08:20;102272.03;;;12.39;100.00
4449;BME280;2237;51.870;6.160;2023-02-19T13:10:54;102279.09;;;12.22;100.00
4449;BME280;2237;51.870;6.160;2023-02-19T13:13:29;102276.13;;;12.73;100.00
4449;BME280;2237;51.870;6.160;2023-02-19T13:16:04;102282.19;;;12.75;100.00
4449;BME280;2237;51.870;6.160;2023-02-19T13:21:13;102295.75;;;12.04;100.00
4449;BME280;2237;51.870;6.160;2023-02-19T13:24:07;102294.00;;;11.99;100.00
4449;BME280;2237;51.870;6.160;2023-02-19T13:37:35;102324.59;;;11.63;100.00
4449;BME280;2237;51.870;6.160;2023-02-19T13:42:53;102322.88;;;11.44;100.00
4449;BME280;2237;51.870;6.160;2023-02-19T13:45:23;102324.59;;;11.56;100.00
4449;BME280;2237;51.870;6.160;2023-02-19T13:50:46;102346.31;;;11.76;100.00
4449;BME280;2237;51.870;6.160;2023-02-19T14:14:45;102344.47;;;12.05;100.00
4449;BME280;2237;51.870;6.160;2023-02-19T14:17:47;102347.06;;;12.13;100.00
4449;BME280;2237;51.870;6.160;2023-02-19T14:33:38;102358.38;;;12.09;100.00
4449;BME280;2237;51.870;6.160;2023-02-19T14:38:54;102363.66;;;12.01;100.00
4449;BME280;2237;51.870;6.160;2023-02-19T14:41:22;102357.59;;;11.92;100.00
4449;BME280;2237;51.870;6.160;2023-02-19T14:43:51;102338.44;;;11.93;100.00
4449;BME280;2237;51.870;6.160;2023-02-19T14:46:28;102343.66;;;11.93;100.00
4449;BME280;2237;51.870;6.160;2023-02-19T14:49:17;102340.16;;;11.94;100.00
4449;BME280;2237;51.870;6.160;2023-02-19T14:51:49;102331.44;;;11.93;100.00
4449;BME280;2237;51.870;6.160;2023-02-19T14:54:24;102332.31;;;11.98;100.00
4449;BME280;2237;51.870;6.160;2023-02-19T14:56:53;102334.06;;;11.93;100.00
4449;BME280;2237;51.870;6.160;2023-02-19T14:59:23;102323.63;;;11.95;100.00
4449;BME280;2237;51.870;6.160;2023-02-19T15:01:58;102314.06;;;11.94;100.00
4449;BME280;2237;51.870;6.160;2023-02-19T15:04:27;102314.06;;;11.87;100.00
4449;BME280;2237;51.870;6.160;2023-02-19T15:06:55;102314.94;;;11.88;100.00
4449;BME280;2237;51.870;6.160;2023-02-19T15:09:30;102307.16;;;11.83;100.00
4449;BME280;2237;51.870;6.160;2023-02-19T15:11:59;102297.56;;;11.85;100.00
4449;BME280;2237;51.870;6.160;2023-02-19T15:14:27;102295.81;;;11.86;100.00
4449;BME280;2237;51.870;6.160;2023-02-19T15:16:59;102292.31;;;11.87;100.00
4449;BME280;2237;51.870;6.160;2023-02-19T15:19:28;102294.06;;;11.93;100.00
4449;BME280;2237;51.870;6.160;2023-02-19T15:21:57;102294.91;;;11.95;100.00
4449;BME280;2237;51.870;6.160;2023-02-19T15:24:24;102301.91;;;11.93;100.00
4449;BME280;2237;51.870;6.160;2023-02-19T15:26:52;102303.66;;;11.84;100.00